地図

経路データ

SID SEASON NUMBER BASIN SUBBASIN NAME ISO_TIME NATURE LAT LON WMO_WIND WMO_PRES WMO_AGENCY TRACK_TYPE DIST2LAND LANDFALL IFLAG USA_AGENCY USA_ATCF_ID USA_LAT USA_LON USA_RECORD USA_STATUS USA_WIND USA_PRES USA_SSHS USA_R34_NE USA_R34_SE USA_R34_SW USA_R34_NW USA_R50_NE USA_R50_SE USA_R50_SW USA_R50_NW USA_R64_NE USA_R64_SE USA_R64_SW USA_R64_NW USA_POCI USA_ROCI USA_RMW USA_EYE TOKYO_LAT TOKYO_LON TOKYO_GRADE TOKYO_WIND TOKYO_PRES TOKYO_R50_DIR TOKYO_R50_LONG TOKYO_R50_SHORT TOKYO_R30_DIR TOKYO_R30_LONG TOKYO_R30_SHORT TOKYO_LAND CMA_LAT CMA_LON CMA_CAT CMA_WIND CMA_PRES HKO_LAT HKO_LON HKO_CAT HKO_WIND HKO_PRES NEWDELHI_LAT NEWDELHI_LON NEWDELHI_GRADE NEWDELHI_WIND NEWDELHI_PRES NEWDELHI_CI NEWDELHI_DP NEWDELHI_POCI REUNION_LAT REUNION_LON REUNION_TYPE REUNION_WIND REUNION_PRES REUNION_TNUM REUNION_CI REUNION_RMW REUNION_R34_NE REUNION_R34_SE REUNION_R34_SW REUNION_R34_NW REUNION_R50_NE REUNION_R50_SE REUNION_R50_SW REUNION_R50_NW REUNION_R64_NE REUNION_R64_SE REUNION_R64_SW REUNION_R64_NW BOM_LAT BOM_LON BOM_TYPE BOM_WIND BOM_PRES BOM_TNUM BOM_CI BOM_RMW BOM_R34_NE BOM_R34_SE BOM_R34_SW BOM_R34_NW BOM_R50_NE BOM_R50_SE BOM_R50_SW BOM_R50_NW BOM_R64_NE BOM_R64_SE BOM_R64_SW BOM_R64_NW BOM_ROCI BOM_POCI BOM_EYE BOM_POS_METHOD BOM_PRES_METHOD NADI_LAT NADI_LON NADI_CAT NADI_WIND NADI_PRES WELLINGTON_LAT WELLINGTON_LON WELLINGTON_WIND WELLINGTON_PRES DS824_LAT DS824_LON DS824_STAGE DS824_WIND DS824_PRES TD9636_LAT TD9636_LON TD9636_STAGE TD9636_WIND TD9636_PRES TD9635_LAT TD9635_LON TD9635_WIND TD9635_PRES TD9635_ROCI NEUMANN_LAT NEUMANN_LON NEUMANN_CLASS NEUMANN_WIND NEUMANN_PRES MLC_LAT MLC_LON MLC_CLASS MLC_WIND MLC_PRES USA_GUST BOM_GUST BOM_GUST_PER REUNION_GUST REUNION_GUST_PER USA_SEAHGT USA_SEARAD_NE USA_SEARAD_SE USA_SEARAD_SW USA_SEARAD_NW STORM_SPEED STORM_DIR
1917353S18121 1918 55 SI WA NOT_NAMED 1917-12-18 12:00:00 NR -17.5000 121.200 spur-other 96 96 __________O___ -1 -17.5000 121.200 7 27 238
1917353S18121 1918 55 SI WA NOT_NAMED 1917-12-18 15:00:00 NR -18.2170 119.996 spur-other 183 159 __________P___ -1 -18.0086 119.676 7 28 243
1917353S18121 1918 55 SI WA NOT_NAMED 1917-12-18 18:00:00 NR -18.7491 118.571 spur-other 165 154 __________P___ -1 -18.5280 118.248 7 28 250
1917353S18121 1918 55 SI WA NOT_NAMED 1917-12-18 21:00:00 NR -19.2049 117.186 spur-other 162 118 __________P___ -1 -19.0827 117.020 7 25 248
1917353S18121 1918 55 SI WA NOT_NAMED 1917-12-19 00:00:00 NR -19.7000 116.100 spur-other 118 114 __________O___ -1 -19.7000 116.100 7 21 240
1917353S18121 1918 55 SI WA NOT_NAMED 1917-12-19 01:00:00 NR -19.9243 115.879 spur-other 114 83 __________P___ -1 -19.9243 115.879 7 17 216
1917353S18121 1918 55 SI WA NOT_NAMED 1917-12-19 03:00:00 NR -20.3999 115.563 spur-other 83 38 __________P___ -1 -20.3999 115.563 7 16 201
1917353S18121 1918 55 SI WA NOT_NAMED 1917-12-19 06:00:00 NR -21.1675 115.367 spur-other 30 0 __________P___ -1 -21.1675 115.367 7 16 184
1917353S18121 1918 55 SI WA NOT_NAMED 1917-12-19 09:00:00 NR -21.9767 115.437 spur-other 0 0 __________P___ -1 -21.9767 115.437 7 16 173
1917353S18121 1918 55 SI WA NOT_NAMED 1917-12-19 10:00:00 NR -22.2509 115.507 spur-other 0 0 __________P___ -1 -22.2509 115.507 7 17 164
1917353S18121 1918 55 SI WA NOT_NAMED 1917-12-19 12:00:00 NR -22.8000 115.700 spur-other 0 0 __________O___ -1 -22.8000 115.700 7 18 161
1917353S18121 1918 55 SI WA NOT_NAMED 1917-12-19 15:00:00 NR -23.6588 116.038 spur-other 0 0 __________P___ -1 -23.6588 116.038 7 19 156
1917353S18121 1918 55 SI WA NOT_NAMED 1917-12-19 18:00:00 NR -24.5143 116.542 spur-other 0 0 __________P___ -1 -24.5143 116.542 7 19 149
1917353S18121 1918 55 SI WA NOT_NAMED 1917-12-19 21:00:00 NR -25.3123 117.126 spur-other 0 0 __________P___ -1 -25.3123 117.126 7 18 145
1917353S18121 1918 55 SI WA NOT_NAMED 1917-12-20 00:00:00 NR -26.0000 117.700 spur-other 0 0 __________O___ -1 -26.0000 117.700 7 16 143
1917353S18121 1918 55 SI WA NOT_NAMED 1917-12-20 01:00:00 NR -26.1853 117.846 spur-other 0 0 __________P___ -1 -26.1853 117.846 7 13 143
1917353S18121 1918 55 SI WA NOT_NAMED 1917-12-20 03:00:00 NR -26.5098 118.124 spur-other 0 0 __________P___ -1 -26.5098 118.124 7 11 140
1917353S18121 1918 55 SI WA NOT_NAMED 1917-12-20 06:00:00 NR -26.9110 118.520 spur-other 0 0 __________P___ -1 -26.9110 118.520 7 10 137
1917353S18121 1918 55 SI WA NOT_NAMED 1917-12-20 09:00:00 NR -27.2567 118.905 spur-other 0 0 __________P___ -1 -27.2567 118.905 7 10 135
1917353S18121 1918 55 SI WA NOT_NAMED 1917-12-20 12:00:00 NR -27.6000 119.300 spur-other 0 0 __________O___ -1 -27.6000 119.300 7 9 139
1917353S18121 1918 55 SI WA NOT_NAMED 1917-12-20 15:00:00 NR -27.9346 119.581 spur-other 0 0 __________P___ -1 -27.9346 119.581 7 9 143
1917353S18121 1918 55 SI WA NOT_NAMED 1917-12-20 18:00:00 NR -28.2895 119.898 spur-other 0 0 __________P___ -1 -28.2895 119.898 7 11 139
1917353S18121 1918 55 SI WA NOT_NAMED 1917-12-20 21:00:00 NR -28.7251 120.365 spur-other 0 0 __________P___ -1 -28.7251 120.365 7 15 134
1917353S18121 1918 55 SI WA NOT_NAMED 1917-12-21 00:00:00 NR -29.3000 121.100 spur-other 0 0 __________O___ -1 -29.3000 121.100 7 21 130
1917353S18121 1918 55 SI WA NOT_NAMED 1917-12-21 03:00:00 NR -30.1029 122.220 spur-other 0 0 __________P___ -1 -30.1029 122.220 7 28 128
1917353S18121 1918 55 SI WA NOT_NAMED 1917-12-21 06:00:00 NR -31.0282 123.635 spur-other 0 0 __________P___ -1 -31.0282 123.635 7 32 126
1917353S18121 1918 55 SI WA NOT_NAMED 1917-12-21 09:00:00 NR -31.9884 125.260 spur-other 0 0 __________P___ -1 -31.9884 125.260 7 34 123
1917353S18121 1918 55 SI WA NOT_NAMED 1917-12-21 12:00:00 NR -32.9000 127.000 spur-other 66 66 __________O___ -1 -32.9000 127.000 7 34 120
1917353S18121 1918 55 SI WA NOT_NAMED 1917-12-21 15:00:00 NR -33.7017 128.772 spur-other 197 197 __________P___ -1 -33.7017 128.772 7 33 117
1917353S18121 1918 55 SI WA NOT_NAMED 1917-12-21 18:00:00 NR -34.4024 130.562 spur-other 306 258 __________P___ -1 -34.4024 130.562 7 32 114
1917353S18121 1918 55 SI WA NOT_NAMED 1917-12-21 21:00:00 NR -35.0272 132.370 spur-other 249 141 __________P___ -1 -35.0272 132.370 7 32 112
1917353S18121 1918 55 SI WA NOT_NAMED 1917-12-22 00:00:00 NR -35.6000 134.200 spur-other 138 __________O___ -1 -35.6000 134.200 7 32 111

IBTrACS Databaseについて

本データベースは、米国NOAAが公開する1842年以降の世界の熱帯低気圧のベストトラックデータアーカイブInternational Best Track Archive for Climate Stewardship (IBTrACS)を、ウェブで閲覧しやすい形式に変換したものです。

最終更新日:2021-10-08